Terminal Aerodrome Forecast
Issued by NWS

Home | Current Version | Previous Version | Text Only | Print | Product List | Glossary On
Versions: 1 2 3 4 5 6 7 8 9 10 11 12 13
000
FTAK31 PAJN 212300
TAFAYA
TAF
PAYA 212330Z 2200/2224 VRB03KT P6SM VCSH BKN030 OVC050
      TEMPO 2200/2204 12010G20KT 5SM -SHRA BR OVC015
     FM220800 VRB08KT 5SM -SHRA BKN020 OVC050
     FM221800 09005KT P6SM -SHRA SCT020 OVC050
      AMD LTD TO CLD VIS AND WIND 2201/2210=

USA.gov is the U.S. government's official web portal to all federal, state and local government web resources and services.